sensor_id;sensor_type;location;lat;lon;timestamp;P1;durP1;ratioP1;P2;durP2;ratioP2
18125;SDS011;53956;52.442;13.284;2023-04-21T00:01:29;20.03;;;8.77;;
18125;SDS011;53956;52.442;13.284;2023-04-21T00:03:57;19.43;;;9.67;;
18125;SDS011;53956;52.442;13.284;2023-04-21T00:06:24;24.57;;;9.20;;
18125;SDS011;53956;52.442;13.284;2023-04-21T00:08:51;18.97;;;9.27;;
18125;SDS011;53956;52.442;13.284;2023-04-21T00:11:20;17.10;;;9.97;;
18125;SDS011;53956;52.442;13.284;2023-04-21T00:13:47;19.90;;;9.67;;
18125;SDS011;53956;52.442;13.284;2023-04-21T00:16:13;17.67;;;9.40;;
18125;SDS011;53956;52.442;13.284;2023-04-21T00:18:40;21.73;;;9.13;;
18125;SDS011;53956;52.442;13.284;2023-04-21T00:21:07;18.33;;;9.77;;
18125;SDS011;53956;52.442;13.284;2023-04-21T00:23:33;19.20;;;10.17;;
18125;SDS011;53956;52.442;13.284;2023-04-21T00:26:00;19.23;;;10.40;;
18125;SDS011;53956;52.442;13.284;2023-04-21T00:28:28;17.30;;;10.47;;
18125;SDS011;53956;52.442;13.284;2023-04-21T00:30:57;19.20;;;10.07;;
18125;SDS011;53956;52.442;13.284;2023-04-21T00:33:25;18.43;;;10.20;;
18125;SDS011;53956;52.442;13.284;2023-04-21T00:35:54;20.87;;;10.47;;
18125;SDS011;53956;52.442;13.284;2023-04-21T00:38:23;19.87;;;10.40;;
18125;SDS011;53956;52.442;13.284;2023-04-21T00:40:49;21.50;;;10.37;;
18125;SDS011;53956;52.442;13.284;2023-04-21T00:43:16;23.37;;;11.30;;
18125;SDS011;53956;52.442;13.284;2023-04-21T00:45:45;24.40;;;11.13;;
18125;SDS011;53956;52.442;13.284;2023-04-21T00:48:11;18.87;;;10.73;;
18125;SDS011;53956;52.442;13.284;2023-04-21T00:50:38;15.73;;;10.53;;
18125;SDS011;53956;52.442;13.284;2023-04-21T00:53:05;17.63;;;10.43;;
18125;SDS011;53956;52.442;13.284;2023-04-21T00:55:32;26.90;;;10.97;;
18125;SDS011;53956;52.442;13.284;2023-04-21T00:58:01;20.90;;;11.97;;
18125;SDS011;53956;52.442;13.284;2023-04-21T01:00:28;19.77;;;11.63;;
18125;SDS011;53956;52.442;13.284;2023-04-21T01:02:56;17.50;;;11.67;;
18125;SDS011;53956;52.442;13.284;2023-04-21T01:05:24;21.03;;;10.87;;
18125;SDS011;53956;52.442;13.284;2023-04-21T01:07:51;23.57;;;11.30;;
18125;SDS011;53956;52.442;13.284;2023-04-21T01:10:18;16.97;;;11.60;;
18125;SDS011;53956;52.442;13.284;2023-04-21T01:12:45;22.47;;;12.03;;
18125;SDS011;53956;52.442;13.284;2023-04-21T01:15:13;22.40;;;11.50;;
18125;SDS011;53956;52.442;13.284;2023-04-21T01:17:41;27.57;;;10.97;;
18125;SDS011;53956;52.442;13.284;2023-04-21T01:20:09;19.77;;;11.20;;
18125;SDS011;53956;52.442;13.284;2023-04-21T01:22:39;21.00;;;11.40;;
18125;SDS011;53956;52.442;13.284;2023-04-21T01:25:08;20.03;;;12.07;;
18125;SDS011;53956;52.442;13.284;2023-04-21T01:27:35;21.67;;;12.27;;
18125;SDS011;53956;52.442;13.284;2023-04-21T01:30:02;23.97;;;12.53;;
18125;SDS011;53956;52.442;13.284;2023-04-21T01:32:30;20.43;;;12.30;;
18125;SDS011;53956;52.442;13.284;2023-04-21T01:34:57;20.33;;;12.43;;
18125;SDS011;53956;52.442;13.284;2023-04-21T01:37:24;22.80;;;12.07;;
18125;SDS011;53956;52.442;13.284;2023-04-21T01:39:55;23.73;;;12.60;;
18125;SDS011;53956;52.442;13.284;2023-04-21T01:42:24;19.07;;;12.73;;
18125;SDS011;53956;52.442;13.284;2023-04-21T01:44:53;18.83;;;12.33;;
18125;SDS011;53956;52.442;13.284;2023-04-21T01:47:19;23.40;;;13.20;;
18125;SDS011;53956;52.442;13.284;2023-04-21T01:49:46;20.07;;;13.47;;
18125;SDS011;53956;52.442;13.284;2023-04-21T01:52:13;22.90;;;12.50;;
18125;SDS011;53956;52.442;13.284;2023-04-21T01:54:40;18.90;;;12.90;;
18125;SDS011;53956;52.442;13.284;2023-04-21T01:57:08;21.57;;;12.87;;
18125;SDS011;53956;52.442;13.284;2023-04-21T01:59:35;19.33;;;13.00;;
18125;SDS011;53956;52.442;13.284;2023-04-21T02:02:02;23.30;;;13.67;;
18125;SDS011;53956;52.442;13.284;2023-04-21T02:04:31;24.03;;;13.00;;
18125;SDS011;53956;52.442;13.284;2023-04-21T02:06:58;22.83;;;13.47;;
18125;SDS011;53956;52.442;13.284;2023-04-21T02:09:25;22.53;;;13.73;;
18125;SDS011;53956;52.442;13.284;2023-04-21T02:11:52;26.90;;;13.70;;
18125;SDS011;53956;52.442;13.284;2023-04-21T02:14:22;27.57;;;14.07;;
18125;SDS011;53956;52.442;13.284;2023-04-21T02:16:49;27.37;;;15.10;;
18125;SDS011;53956;52.442;13.284;2023-04-21T02:19:15;23.70;;;13.97;;
18125;SDS011;53956;52.442;13.284;2023-04-21T02:21:42;21.13;;;14.17;;
18125;SDS011;53956;52.442;13.284;2023-04-21T02:24:09;20.87;;;13.70;;
18125;SDS011;53956;52.442;13.284;2023-04-21T02:26:35;21.33;;;14.40;;
18125;SDS011;53956;52.442;13.284;2023-04-21T02:29:02;23.10;;;14.17;;
18125;SDS011;53956;52.442;13.284;2023-04-21T02:31:30;22.27;;;14.67;;
18125;SDS011;53956;52.442;13.284;2023-04-21T02:33:57;20.40;;;14.60;;
18125;SDS011;53956;52.442;13.284;2023-04-21T02:36:23;23.20;;;14.80;;
18125;SDS011;53956;52.442;13.284;2023-04-21T02:38:50;25.03;;;15.20;;
18125;SDS011;53956;52.442;13.284;2023-04-21T02:41:17;25.83;;;15.20;;
18125;SDS011;53956;52.442;13.284;2023-04-21T02:43:43;22.73;;;14.53;;
18125;SDS011;53956;52.442;13.284;2023-04-21T02:46:10;22.53;;;14.53;;
18125;SDS011;53956;52.442;13.284;2023-04-21T02:48:40;27.77;;;14.70;;
18125;SDS011;53956;52.442;13.284;2023-04-21T02:51:10;23.83;;;14.23;;
18125;SDS011;53956;52.442;13.284;2023-04-21T02:53:37;22.43;;;14.70;;
18125;SDS011;53956;52.442;13.284;2023-04-21T02:56:04;21.17;;;14.80;;
18125;SDS011;53956;52.442;13.284;2023-04-21T02:58:32;24.43;;;15.10;;
18125;SDS011;53956;52.442;13.284;2023-04-21T03:00:59;22.27;;;14.67;;
18125;SDS011;53956;52.442;13.284;2023-04-21T03:03:26;19.30;;;14.87;;
18125;SDS011;53956;52.442;13.284;2023-04-21T03:05:56;22.93;;;15.27;;
18125;SDS011;53956;52.442;13.284;2023-04-21T03:08:23;22.37;;;15.10;;
18125;SDS011;53956;52.442;13.284;2023-04-21T03:10:50;23.53;;;15.33;;
18125;SDS011;53956;52.442;13.284;2023-04-21T03:13:16;27.10;;;16.07;;
18125;SDS011;53956;52.442;13.284;2023-04-21T03:15:43;26.60;;;15.93;;
18125;SDS011;53956;52.442;13.284;2023-04-21T03:18:10;26.60;;;16.30;;
18125;SDS011;53956;52.442;13.284;2023-04-21T03:20:37;26.33;;;15.83;;
18125;SDS011;53956;52.442;13.284;2023-04-21T03:23:05;31.00;;;15.83;;
18125;SDS011;53956;52.442;13.284;2023-04-21T03:25:31;25.53;;;16.67;;
18125;SDS011;53956;52.442;13.284;2023-04-21T03:27:59;25.90;;;16.50;;
18125;SDS011;53956;52.442;13.284;2023-04-21T03:30:25;22.20;;;15.23;;
18125;SDS011;53956;52.442;13.284;2023-04-21T03:32:52;24.40;;;16.27;;
18125;SDS011;53956;52.442;13.284;2023-04-21T03:35:20;21.90;;;15.97;;
18125;SDS011;53956;52.442;13.284;2023-04-21T03:37:47;23.30;;;15.37;;
18125;SDS011;53956;52.442;13.284;2023-04-21T03:40:16;29.97;;;16.77;;
18125;SDS011;53956;52.442;13.284;2023-04-21T03:42:43;24.63;;;16.07;;
18125;SDS011;53956;52.442;13.284;2023-04-21T03:45:11;24.03;;;16.00;;
18125;SDS011;53956;52.442;13.284;2023-04-21T03:47:38;26.27;;;16.07;;
18125;SDS011;53956;52.442;13.284;2023-04-21T03:50:05;22.40;;;15.90;;
18125;SDS011;53956;52.442;13.284;2023-04-21T03:52:32;25.20;;;16.03;;
18125;SDS011;53956;52.442;13.284;2023-04-21T03:54:59;25.37;;;16.53;;
18125;SDS011;53956;52.442;13.284;2023-04-21T03:57:27;26.07;;;16.57;;
18125;SDS011;53956;52.442;13.284;2023-04-21T03:59:53;24.30;;;16.00;;
18125;SDS011;53956;52.442;13.284;2023-04-21T04:02:20;24.17;;;15.23;;
18125;SDS011;53956;52.442;13.284;2023-04-21T04:04:47;27.63;;;16.23;;
18125;SDS011;53956;52.442;13.284;2023-04-21T04:07:14;23.73;;;16.80;;
18125;SDS011;53956;52.442;13.284;2023-04-21T04:09:41;21.87;;;16.70;;
18125;SDS011;53956;52.442;13.284;2023-04-21T04:12:08;30.77;;;17.53;;
18125;SDS011;53956;52.442;13.284;2023-04-21T04:14:36;23.80;;;16.83;;
18125;SDS011;53956;52.442;13.284;2023-04-21T04:17:03;23.13;;;15.83;;
18125;SDS011;53956;52.442;13.284;2023-04-21T04:19:30;22.07;;;15.43;;
18125;SDS011;53956;52.442;13.284;2023-04-21T04:21:57;25.10;;;16.13;;
18125;SDS011;53956;52.442;13.284;2023-04-21T04:24:24;24.03;;;15.73;;
18125;SDS011;53956;52.442;13.284;2023-04-21T04:26:51;21.63;;;16.30;;
18125;SDS011;53956;52.442;13.284;2023-04-21T04:29:19;22.70;;;16.80;;
18125;SDS011;53956;52.442;13.284;2023-04-21T04:31:48;23.83;;;16.07;;
18125;SDS011;53956;52.442;13.284;2023-04-21T04:34:14;23.67;;;15.63;;
18125;SDS011;53956;52.442;13.284;2023-04-21T04:36:41;24.70;;;17.07;;
18125;SDS011;53956;52.442;13.284;2023-04-21T04:39:08;22.60;;;16.87;;
18125;SDS011;53956;52.442;13.284;2023-04-21T04:41:36;21.57;;;16.23;;
18125;SDS011;53956;52.442;13.284;2023-04-21T04:44:03;22.57;;;16.30;;
18125;SDS011;53956;52.442;13.284;2023-04-21T04:46:30;21.30;;;15.93;;
18125;SDS011;53956;52.442;13.284;2023-04-21T04:48:58;21.17;;;16.73;;
18125;SDS011;53956;52.442;13.284;2023-04-21T04:51:25;27.57;;;16.83;;
18125;SDS011;53956;52.442;13.284;2023-04-21T04:53:52;23.17;;;16.27;;
18125;SDS011;53956;52.442;13.284;2023-04-21T04:56:18;25.93;;;16.73;;
18125;SDS011;53956;52.442;13.284;2023-04-21T04:58:46;22.30;;;16.30;;
18125;SDS011;53956;52.442;13.284;2023-04-21T05:01:12;22.27;;;16.60;;
18125;SDS011;53956;52.442;13.284;2023-04-21T05:03:40;27.00;;;16.13;;
18125;SDS011;53956;52.442;13.284;2023-04-21T05:06:08;23.63;;;15.93;;
18125;SDS011;53956;52.442;13.284;2023-04-21T05:08:35;23.80;;;17.10;;
18125;SDS011;53956;52.442;13.284;2023-04-21T05:11:01;29.00;;;16.73;;
18125;SDS011;53956;52.442;13.284;2023-04-21T05:13:28;23.33;;;16.90;;
18125;SDS011;53956;52.442;13.284;2023-04-21T05:15:56;23.50;;;16.93;;
18125;SDS011;53956;52.442;13.284;2023-04-21T05:18:22;22.47;;;15.77;;
18125;SDS011;53956;52.442;13.284;2023-04-21T05:20:49;23.57;;;16.40;;
18125;SDS011;53956;52.442;13.284;2023-04-21T05:23:17;22.97;;;16.37;;
18125;SDS011;53956;52.442;13.284;2023-04-21T05:25:44;24.00;;;15.47;;
18125;SDS011;53956;52.442;13.284;2023-04-21T05:28:10;24.43;;;15.60;;
18125;SDS011;53956;52.442;13.284;2023-04-21T05:30:37;22.17;;;15.90;;
18125;SDS011;53956;52.442;13.284;2023-04-21T05:33:04;24.60;;;15.40;;
18125;SDS011;53956;52.442;13.284;2023-04-21T05:35:30;23.20;;;15.37;;
18125;SDS011;53956;52.442;13.284;2023-04-21T05:37:57;24.00;;;14.93;;
18125;SDS011;53956;52.442;13.284;2023-04-21T05:40:25;23.00;;;14.48;;
18125;SDS011;53956;52.442;13.284;2023-04-21T05:42:52;23.15;;;14.55;;
18125;SDS011;53956;52.442;13.284;2023-04-21T05:45:19;22.50;;;13.95;;
18125;SDS011;53956;52.442;13.284;2023-04-21T05:47:45;17.33;;;14.00;;
18125;SDS011;53956;52.442;13.284;2023-04-21T05:50:12;16.63;;;13.48;;
18125;SDS011;53956;52.442;13.284;2023-04-21T05:52:39;19.08;;;14.00;;
18125;SDS011;53956;52.442;13.284;2023-04-21T05:55:05;19.90;;;13.48;;
18125;SDS011;53956;52.442;13.284;2023-04-21T05:57:34;23.70;;;13.60;;
18125;SDS011;53956;52.442;13.284;2023-04-21T06:00:00;20.88;;;13.55;;
18125;SDS011;53956;52.442;13.284;2023-04-21T06:02:30;19.00;;;13.60;;
18125;SDS011;53956;52.442;13.284;2023-04-21T06:04:57;20.33;;;13.75;;
18125;SDS011;53956;52.442;13.284;2023-04-21T06:07:23;18.98;;;13.07;;
18125;SDS011;53956;52.442;13.284;2023-04-21T06:09:51;18.65;;;13.30;;
18125;SDS011;53956;52.442;13.284;2023-04-21T06:12:17;17.30;;;12.82;;
18125;SDS011;53956;52.442;13.284;2023-04-21T06:14:45;18.98;;;13.02;;
18125;SDS011;53956;52.442;13.284;2023-04-21T06:17:14;18.58;;;13.18;;
18125;SDS011;53956;52.442;13.284;2023-04-21T06:19:42;16.67;;;12.43;;
18125;SDS011;53956;52.442;13.284;2023-04-21T06:22:08;19.95;;;12.18;;
18125;SDS011;53956;52.442;13.284;2023-04-21T06:24:35;19.50;;;12.45;;
18125;SDS011;53956;52.442;13.284;2023-04-21T06:27:01;17.58;;;12.52;;
18125;SDS011;53956;52.442;13.284;2023-04-21T06:29:28;17.67;;;12.23;;
18125;SDS011;53956;52.442;13.284;2023-04-21T06:31:56;18.63;;;12.70;;
18125;SDS011;53956;52.442;13.284;2023-04-21T06:34:23;18.20;;;12.70;;
18125;SDS011;53956;52.442;13.284;2023-04-21T06:36:49;17.30;;;12.18;;
18125;SDS011;53956;52.442;13.284;2023-04-21T06:39:17;16.35;;;11.98;;
18125;SDS011;53956;52.442;13.284;2023-04-21T06:41:43;16.27;;;12.23;;
18125;SDS011;53956;52.442;13.284;2023-04-21T06:44:10;19.98;;;12.88;;
18125;SDS011;53956;52.442;13.284;2023-04-21T06:46:38;19.48;;;11.43;;
18125;SDS011;53956;52.442;13.284;2023-04-21T06:49:06;16.27;;;11.45;;
18125;SDS011;53956;52.442;13.284;2023-04-21T06:51:32;15.20;;;11.48;;
18125;SDS011;53956;52.442;13.284;2023-04-21T06:53:59;20.65;;;11.70;;
18125;SDS011;53956;52.442;13.284;2023-04-21T06:56:26;16.55;;;12.07;;
18125;SDS011;53956;52.442;13.284;2023-04-21T06:58:53;19.90;;;11.60;;
18125;SDS011;53956;52.442;13.284;2023-04-21T07:01:20;15.85;;;11.85;;
18125;SDS011;53956;52.442;13.284;2023-04-21T07:03:48;17.52;;;12.30;;
18125;SDS011;53956;52.442;13.284;2023-04-21T07:06:16;19.08;;;12.27;;
18125;SDS011;53956;52.442;13.284;2023-04-21T07:08:43;17.05;;;11.63;;
18125;SDS011;53956;52.442;13.284;2023-04-21T07:11:10;17.52;;;12.65;;
18125;SDS011;53956;52.442;13.284;2023-04-21T07:13:36;18.27;;;12.73;;
18125;SDS011;53956;52.442;13.284;2023-04-21T07:16:03;16.63;;;13.07;;
18125;SDS011;53956;52.442;13.284;2023-04-21T07:18:30;17.33;;;12.57;;
18125;SDS011;53956;52.442;13.284;2023-04-21T07:20:58;17.35;;;13.63;;
18125;SDS011;53956;52.442;13.284;2023-04-21T07:23:26;17.05;;;13.07;;
18125;SDS011;53956;52.442;13.284;2023-04-21T07:25:56;19.27;;;13.65;;
18125;SDS011;53956;52.442;13.284;2023-04-21T07:28:22;18.80;;;13.45;;
18125;SDS011;53956;52.442;13.284;2023-04-21T07:30:49;22.45;;;12.90;;
18125;SDS011;53956;52.442;13.284;2023-04-21T07:33:16;20.67;;;12.57;;
18125;SDS011;53956;52.442;13.284;2023-04-21T07:35:42;19.50;;;12.75;;
18125;SDS011;53956;52.442;13.284;2023-04-21T07:38:09;19.70;;;12.70;;
18125;SDS011;53956;52.442;13.284;2023-04-21T07:40:37;17.98;;;12.93;;
18125;SDS011;53956;52.442;13.284;2023-04-21T07:43:04;18.20;;;12.95;;
18125;SDS011;53956;52.442;13.284;2023-04-21T07:45:30;16.50;;;12.45;;
18125;SDS011;53956;52.442;13.284;2023-04-21T07:47:57;19.30;;;12.60;;
18125;SDS011;53956;52.442;13.284;2023-04-21T07:50:24;19.83;;;12.48;;
18125;SDS011;53956;52.442;13.284;2023-04-21T07:52:50;19.02;;;13.25;;
18125;SDS011;53956;52.442;13.284;2023-04-21T07:55:17;22.45;;;12.45;;
18125;SDS011;53956;52.442;13.284;2023-04-21T07:57:45;16.58;;;12.25;;
18125;SDS011;53956;52.442;13.284;2023-04-21T08:00:12;20.13;;;12.43;;
18125;SDS011;53956;52.442;13.284;2023-04-21T08:02:39;17.75;;;12.48;;
18125;SDS011;53956;52.442;13.284;2023-04-21T08:05:06;18.08;;;12.93;;
18125;SDS011;53956;52.442;13.284;2023-04-21T08:07:33;20.30;;;12.82;;
18125;SDS011;53956;52.442;13.284;2023-04-21T08:10:00;16.95;;;12.98;;
18125;SDS011;53956;52.442;13.284;2023-04-21T08:12:27;19.80;;;13.30;;
18125;SDS011;53956;52.442;13.284;2023-04-21T08:14:55;20.33;;;11.82;;
18125;SDS011;53956;52.442;13.284;2023-04-21T08:17:22;18.05;;;12.55;;
18125;SDS011;53956;52.442;13.284;2023-04-21T08:19:48;16.40;;;12.57;;
18125;SDS011;53956;52.442;13.284;2023-04-21T08:22:15;18.08;;;12.73;;
18125;SDS011;53956;52.442;13.284;2023-04-21T08:24:42;15.70;;;11.80;;
18125;SDS011;53956;52.442;13.284;2023-04-21T08:27:08;18.65;;;12.00;;
18125;SDS011;53956;52.442;13.284;2023-04-21T08:29:35;19.75;;;12.55;;
18125;SDS011;53956;52.442;13.284;2023-04-21T08:32:03;18.23;;;12.15;;
18125;SDS011;53956;52.442;13.284;2023-04-21T08:34:30;18.45;;;11.82;;
18125;SDS011;53956;52.442;13.284;2023-04-21T08:36:56;18.35;;;12.35;;
18125;SDS011;53956;52.442;13.284;2023-04-21T08:39:23;17.33;;;11.52;;
18125;SDS011;53956;52.442;13.284;2023-04-21T08:41:50;14.48;;;10.43;;
18125;SDS011;53956;52.442;13.284;2023-04-21T08:44:19;16.67;;;11.40;;
18125;SDS011;53956;52.442;13.284;2023-04-21T08:46:46;16.90;;;11.40;;
18125;SDS011;53956;52.442;13.284;2023-04-21T08:49:16;17.58;;;11.10;;
18125;SDS011;53956;52.442;13.284;2023-04-21T08:51:45;15.25;;;10.63;;
18125;SDS011;53956;52.442;13.284;2023-04-21T08:54:12;16.48;;;10.90;;
18125;SDS011;53956;52.442;13.284;2023-04-21T08:56:38;16.15;;;10.57;;
18125;SDS011;53956;52.442;13.284;2023-04-21T08:59:05;14.23;;;10.48;;
18125;SDS011;53956;52.442;13.284;2023-04-21T09:01:32;15.55;;;11.07;;
18125;SDS011;53956;52.442;13.284;2023-04-21T09:06:42;13.77;;;10.30;;
18125;SDS011;53956;52.442;13.284;2023-04-21T09:09:10;16.45;;;10.38;;
18125;SDS011;53956;52.442;13.284;2023-04-21T09:11:36;14.80;;;10.38;;
18125;SDS011;53956;52.442;13.284;2023-04-21T09:14:03;16.90;;;10.27;;
18125;SDS011;53956;52.442;13.284;2023-04-21T09:16:30;14.23;;;9.32;;
18125;SDS011;53956;52.442;13.284;2023-04-21T09:18:58;16.17;;;10.60;;
18125;SDS011;53956;52.442;13.284;2023-04-21T09:21:27;14.35;;;10.13;;
18125;SDS011;53956;52.442;13.284;2023-04-21T09:23:55;13.30;;;10.02;;
18125;SDS011;53956;52.442;13.284;2023-04-21T09:26:22;16.30;;;10.30;;
18125;SDS011;53956;52.442;13.284;2023-04-21T09:28:49;18.27;;;11.00;;
18125;SDS011;53956;52.442;13.284;2023-04-21T09:31:17;13.07;;;9.40;;
18125;SDS011;53956;52.442;13.284;2023-04-21T09:33:46;19.52;;;10.88;;
18125;SDS011;53956;52.442;13.284;2023-04-21T09:36:17;16.50;;;9.95;;
18125;SDS011;53956;52.442;13.284;2023-04-21T09:38:48;13.90;;;9.80;;
18125;SDS011;53956;52.442;13.284;2023-04-21T09:41:16;12.73;;;10.00;;
18125;SDS011;53956;52.442;13.284;2023-04-21T09:43:43;18.40;;;10.57;;
18125;SDS011;53956;52.442;13.284;2023-04-21T09:46:09;14.60;;;10.35;;
18125;SDS011;53956;52.442;13.284;2023-04-21T09:48:36;14.00;;;10.15;;
18125;SDS011;53956;52.442;13.284;2023-04-21T09:51:08;16.38;;;10.73;;
18125;SDS011;53956;52.442;13.284;2023-04-21T09:53:36;15.55;;;10.57;;
18125;SDS011;53956;52.442;13.284;2023-04-21T09:56:06;15.70;;;10.18;;
18125;SDS011;53956;52.442;13.284;2023-04-21T09:58:39;14.88;;;10.65;;
18125;SDS011;53956;52.442;13.284;2023-04-21T10:01:09;13.38;;;10.20;;
18125;SDS011;53956;52.442;13.284;2023-04-21T10:03:38;19.13;;;10.88;;
18125;SDS011;53956;52.442;13.284;2023-04-21T10:06:05;16.60;;;10.18;;
18125;SDS011;53956;52.442;13.284;2023-04-21T10:08:32;14.80;;;10.20;;
18125;SDS011;53956;52.442;13.284;2023-04-21T10:11:00;17.30;;;10.10;;
18125;SDS011;53956;52.442;13.284;2023-04-21T10:13:30;15.55;;;10.40;;
18125;SDS011;53956;52.442;13.284;2023-04-21T10:16:00;16.60;;;10.68;;
18125;SDS011;53956;52.442;13.284;2023-04-21T10:18:28;15.73;;;10.27;;
18125;SDS011;53956;52.442;13.284;2023-04-21T10:20:56;15.52;;;10.00;;
18125;SDS011;53956;52.442;13.284;2023-04-21T10:23:30;17.58;;;9.63;;
18125;SDS011;53956;52.442;13.284;2023-04-21T10:26:02;12.98;;;9.70;;
18125;SDS011;53956;52.442;13.284;2023-04-21T10:28:39;11.52;;;9.95;;
18125;SDS011;53956;52.442;13.284;2023-04-21T10:31:17;17.17;;;9.90;;
18125;SDS011;53956;52.442;13.284;2023-04-21T10:36:48;12.38;;;9.80;;
18125;SDS011;53956;52.442;13.284;2023-04-21T10:39:32;12.23;;;9.52;;
18125;SDS011;53956;52.442;13.284;2023-04-21T10:45:09;14.20;;;10.05;;
18125;SDS011;53956;52.442;13.284;2023-04-21T10:47:37;12.95;;;9.85;;
18125;SDS011;53956;52.442;13.284;2023-04-21T10:50:10;13.27;;;9.45;;
18125;SDS011;53956;52.442;13.284;2023-04-21T10:52:43;14.30;;;9.80;;
18125;SDS011;53956;52.442;13.284;2023-04-21T10:55:11;15.63;;;10.38;;
18125;SDS011;53956;52.442;13.284;2023-04-21T10:57:40;13.02;;;9.70;;
18125;SDS011;53956;52.442;13.284;2023-04-21T11:00:12;14.38;;;9.23;;
18125;SDS011;53956;52.442;13.284;2023-04-21T11:02:41;13.65;;;9.25;;
18125;SDS011;53956;52.442;13.284;2023-04-21T11:05:09;13.02;;;10.10;;
18125;SDS011;53956;52.442;13.284;2023-04-21T11:07:36;14.75;;;9.13;;
18125;SDS011;53956;52.442;13.284;2023-04-21T11:10:03;17.17;;;9.55;;
18125;SDS011;53956;52.442;13.284;2023-04-21T11:12:32;17.33;;;10.07;;
18125;SDS011;53956;52.442;13.284;2023-04-21T11:15:01;13.00;;;10.07;;
18125;SDS011;53956;52.442;13.284;2023-04-21T11:17:32;13.02;;;9.38;;
18125;SDS011;53956;52.442;13.284;2023-04-21T11:20:00;12.57;;;9.45;;
18125;SDS011;53956;52.442;13.284;2023-04-21T11:22:29;13.57;;;9.32;;
18125;SDS011;53956;52.442;13.284;2023-04-21T11:24:56;13.40;;;9.07;;
18125;SDS011;53956;52.442;13.284;2023-04-21T11:27:25;12.23;;;9.48;;
18125;SDS011;53956;52.442;13.284;2023-04-21T11:29:53;11.82;;;9.00;;
18125;SDS011;53956;52.442;13.284;2023-04-21T11:32:19;13.95;;;9.57;;
18125;SDS011;53956;52.442;13.284;2023-04-21T11:34:48;13.15;;;9.20;;
18125;SDS011;53956;52.442;13.284;2023-04-21T11:37:15;18.05;;;9.50;;
18125;SDS011;53956;52.442;13.284;2023-04-21T11:39:42;16.35;;;9.35;;
18125;SDS011;53956;52.442;13.284;2023-04-21T11:42:09;18.33;;;9.70;;
18125;SDS011;53956;52.442;13.284;2023-04-21T11:44:37;16.10;;;8.70;;
18125;SDS011;53956;52.442;13.284;2023-04-21T11:47:11;12.30;;;8.88;;
18125;SDS011;53956;52.442;13.284;2023-04-21T11:49:42;15.18;;;9.73;;
18125;SDS011;53956;52.442;13.284;2023-04-21T11:52:11;10.25;;;8.75;;
18125;SDS011;53956;52.442;13.284;2023-04-21T11:54:45;13.57;;;9.27;;
18125;SDS011;53956;52.442;13.284;2023-04-21T11:57:12;12.82;;;9.43;;
18125;SDS011;53956;52.442;13.284;2023-04-21T11:59:43;13.18;;;9.27;;
18125;SDS011;53956;52.442;13.284;2023-04-21T12:02:12;13.90;;;9.63;;
18125;SDS011;53956;52.442;13.284;2023-04-21T12:04:55;12.20;;;9.43;;
18125;SDS011;53956;52.442;13.284;2023-04-21T12:07:27;14.20;;;9.32;;
18125;SDS011;53956;52.442;13.284;2023-04-21T12:09:55;13.65;;;9.15;;
18125;SDS011;53956;52.442;13.284;2023-04-21T12:12:23;15.82;;;9.63;;
18125;SDS011;53956;52.442;13.284;2023-04-21T12:14:50;14.70;;;9.43;;
18125;SDS011;53956;52.442;13.284;2023-04-21T12:17:17;13.10;;;9.65;;
18125;SDS011;53956;52.442;13.284;2023-04-21T12:19:44;15.15;;;9.43;;
18125;SDS011;53956;52.442;13.284;2023-04-21T12:22:11;13.45;;;9.27;;
18125;SDS011;53956;52.442;13.284;2023-04-21T12:24:41;11.90;;;9.65;;
18125;SDS011;53956;52.442;13.284;2023-04-21T12:27:08;13.02;;;9.57;;
18125;SDS011;53956;52.442;13.284;2023-04-21T12:29:35;11.75;;;9.20;;
18125;SDS011;53956;52.442;13.284;2023-04-21T12:32:02;13.40;;;9.63;;
18125;SDS011;53956;52.442;13.284;2023-04-21T12:34:29;13.70;;;9.60;;
18125;SDS011;53956;52.442;13.284;2023-04-21T12:36:56;12.25;;;8.85;;
18125;SDS011;53956;52.442;13.284;2023-04-21T12:39:22;11.60;;;9.52;;
18125;SDS011;53956;52.442;13.284;2023-04-21T12:41:50;15.02;;;9.57;;
18125;SDS011;53956;52.442;13.284;2023-04-21T12:44:17;11.60;;;9.48;;
18125;SDS011;53956;52.442;13.284;2023-04-21T12:46:43;11.35;;;9.10;;
18125;SDS011;53956;52.442;13.284;2023-04-21T12:49:12;13.00;;;9.27;;
18125;SDS011;53956;52.442;13.284;2023-04-21T12:51:39;13.43;;;9.40;;
18125;SDS011;53956;52.442;13.284;2023-04-21T12:54:07;13.57;;;9.02;;
18125;SDS011;53956;52.442;13.284;2023-04-21T12:56:33;12.95;;;9.75;;
18125;SDS011;53956;52.442;13.284;2023-04-21T12:59:02;15.88;;;9.05;;
18125;SDS011;53956;52.442;13.284;2023-04-21T13:01:28;13.10;;;8.90;;
18125;SDS011;53956;52.442;13.284;2023-04-21T13:03:55;12.88;;;8.57;;
18125;SDS011;53956;52.442;13.284;2023-04-21T13:06:22;12.40;;;8.70;;
18125;SDS011;53956;52.442;13.284;2023-04-21T13:08:48;15.10;;;8.80;;
18125;SDS011;53956;52.442;13.284;2023-04-21T13:11:15;12.35;;;8.20;;
18125;SDS011;53956;52.442;13.284;2023-04-21T13:13:42;13.15;;;9.15;;
18125;SDS011;53956;52.442;13.284;2023-04-21T13:16:10;12.85;;;8.25;;
18125;SDS011;53956;52.442;13.284;2023-04-21T13:18:36;10.95;;;8.63;;
18125;SDS011;53956;52.442;13.284;2023-04-21T13:21:03;12.38;;;8.93;;
18125;SDS011;53956;52.442;13.284;2023-04-21T13:23:31;14.02;;;8.20;;
18125;SDS011;53956;52.442;13.284;2023-04-21T13:25:57;11.95;;;8.20;;
18125;SDS011;53956;52.442;13.284;2023-04-21T13:28:25;13.15;;;8.63;;
18125;SDS011;53956;52.442;13.284;2023-04-21T13:30:51;10.02;;;8.65;;
18125;SDS011;53956;52.442;13.284;2023-04-21T13:33:20;13.43;;;8.60;;
18125;SDS011;53956;52.442;13.284;2023-04-21T13:35:47;12.93;;;8.70;;
18125;SDS011;53956;52.442;13.284;2023-04-21T13:38:14;13.90;;;8.45;;
18125;SDS011;53956;52.442;13.284;2023-04-21T13:40:41;12.65;;;8.52;;
18125;SDS011;53956;52.442;13.284;2023-04-21T13:43:07;12.52;;;8.43;;
18125;SDS011;53956;52.442;13.284;2023-04-21T13:45:34;14.80;;;8.30;;
18125;SDS011;53956;52.442;13.284;2023-04-21T13:48:01;11.18;;;8.32;;
18125;SDS011;53956;52.442;13.284;2023-04-21T13:50:30;11.25;;;7.93;;
18125;SDS011;53956;52.442;13.284;2023-04-21T13:52:57;14.38;;;8.25;;
18125;SDS011;53956;52.442;13.284;2023-04-21T13:55:25;12.20;;;8.43;;
18125;SDS011;53956;52.442;13.284;2023-04-21T13:57:51;10.05;;;8.48;;
18125;SDS011;53956;52.442;13.284;2023-04-21T14:00:18;11.57;;;8.38;;
18125;SDS011;53956;52.442;13.284;2023-04-21T14:02:46;12.82;;;8.80;;
18125;SDS011;53956;52.442;13.284;2023-04-21T14:05:13;10.65;;;8.27;;
18125;SDS011;53956;52.442;13.284;2023-04-21T14:07:41;11.48;;;8.23;;
18125;SDS011;53956;52.442;13.284;2023-04-21T14:10:08;11.68;;;8.02;;
18125;SDS011;53956;52.442;13.284;2023-04-21T14:12:36;10.52;;;8.48;;
18125;SDS011;53956;52.442;13.284;2023-04-21T14:15:02;10.95;;;7.80;;
18125;SDS011;53956;52.442;13.284;2023-04-21T14:17:30;10.73;;;7.85;;
18125;SDS011;53956;52.442;13.284;2023-04-21T14:19:57;12.30;;;7.55;;
18125;SDS011;53956;52.442;13.284;2023-04-21T14:22:24;9.25;;;8.00;;
18125;SDS011;53956;52.442;13.284;2023-04-21T14:24:53;10.45;;;7.90;;